Time;durP1;ratioP1;P1;durP2;ratioP2;P2;SDS_P1;SDS_P2;PMS_P1;PMS_P2;Temp;Humidity;BMP_temperature;BMP_pressure;BME280_temperature;BME280_humidity;BME280_pressure;Samples;Min_cycle;Max_cycle;Signal;HPM_P1;HPM_P2
2024/03/15 00:01:04;;;;;;;12.83;7.50;;;12.10;99.90;;;;;;780693;182;26468;-80
2024/03/15 00:03:31;;;;;;;11.00;7.23;;;12.10;99.90;;;;;;769526;186;26536;-80
2024/03/15 00:05:58;;;;;;;11.17;7.90;;;12.10;99.90;;;;;;780784;184;27040;-79
2024/03/15 00:08:24;;;;;;;8.43;6.60;;;12.10;99.90;;;;;;769059;187;26534;-80
2024/03/15 00:10:51;;;;;;;9.17;7.20;;;12.10;99.90;;;;;;780532;183;26452;-79
2024/03/15 00:13:17;;;;;;;10.57;7.07;;;12.10;99.90;;;;;;769231;187;27009;-80
2024/03/15 00:15:44;;;;;;;10.97;7.23;;;12.10;99.90;;;;;;780463;184;26520;-80
2024/03/15 00:18:10;;;;;;;8.73;7.03;;;12.10;99.90;;;;;;768615;186;26543;-80
2024/03/15 00:20:37;;;;;;;11.53;7.23;;;12.10;99.90;;;;;;779607;183;26452;-79
2024/03/15 00:23:06;;;;;;;11.70;7.17;;;12.10;99.90;;;;;;768651;184;26505;-87
2024/03/15 00:25:30;;;;;;;11.30;6.90;;;12.10;99.90;;;;;;789104;179;26451;-84
2024/03/15 00:27:58;;;;;;;7.97;6.60;;;12.20;99.90;;;;;;771689;184;26525;-85
2024/03/15 00:30:24;;;;;;;11.03;7.63;;;12.10;99.90;;;;;;783663;182;26642;-86
2024/03/15 00:32:52;;;;;;;11.50;7.33;;;12.10;99.90;;;;;;788748;181;27030;-84
2024/03/15 00:35:19;;;;;;;9.40;7.00;;;12.10;99.90;;;;;;780846;182;26496;-85
2024/03/15 00:37:45;;;;;;;9.37;7.00;;;12.10;99.90;;;;;;783855;180;26477;-86
2024/03/15 00:40:11;;;;;;;9.57;7.27;;;12.00;99.90;;;;;;784316;182;26497;-86
2024/03/15 00:42:38;;;;;;;10.23;7.30;;;12.00;99.90;;;;;;796486;180;26447;-86
2024/03/15 00:45:05;;;;;;;10.00;7.73;;;11.90;99.90;;;;;;778157;180;26433;-87
2024/03/15 00:47:32;;;;;;;10.93;7.87;;;12.00;99.90;;;;;;773606;184;26465;-86
2024/03/15 00:49:58;;;;;;;10.60;7.83;;;11.90;99.90;;;;;;785484;180;26478;-84
2024/03/15 00:52:25;;;;;;;10.20;7.87;;;11.90;99.90;;;;;;785968;179;26450;-86
2024/03/15 00:54:51;;;;;;;9.47;7.80;;;11.90;99.90;;;;;;783210;180;26500;-86
2024/03/15 00:57:18;;;;;;;11.33;7.40;;;11.90;99.90;;;;;;788135;180;26451;-85
2024/03/15 00:59:45;;;;;;;14.10;8.73;;;11.90;99.90;;;;;;783995;180;26506;-85
2024/03/15 01:02:12;;;;;;;9.10;7.70;;;11.90;99.90;;;;;;783748;183;28067;-86
2024/03/15 01:04:39;;;;;;;10.43;7.80;;;11.80;99.90;;;;;;784436;180;26449;-83
2024/03/15 01:07:06;;;;;;;13.37;8.43;;;11.70;99.90;;;;;;777321;184;26470;-85
2024/03/15 01:09:32;;;;;;;12.87;7.53;;;11.70;99.90;;;;;;791698;178;26462;-85
2024/03/15 01:12:00;;;;;;;10.60;7.30;;;11.80;99.90;;;;;;789887;170;26511;-79
2024/03/15 01:14:25;;;;;;;14.83;7.70;;;11.80;99.90;;;;;;804616;177;26449;-79
2024/03/15 01:16:52;;;;;;;10.83;7.20;;;11.80;99.90;;;;;;804179;177;26479;-78
2024/03/15 01:19:19;;;;;;;10.77;7.33;;;11.80;99.90;;;;;;804068;178;26426;-79
2024/03/15 01:21:45;;;;;;;9.73;6.97;;;11.80;99.90;;;;;;803294;178;26480;-79
2024/03/15 01:24:12;;;;;;;10.67;7.43;;;11.90;99.90;;;;;;801059;178;26455;-79
2024/03/15 01:26:38;;;;;;;11.20;7.43;;;11.90;99.90;;;;;;800788;178;26469;-77
2024/03/15 01:29:05;;;;;;;9.80;7.20;;;12.00;99.90;;;;;;799533;178;27040;-78
2024/03/15 01:31:31;;;;;;;12.77;7.50;;;12.10;99.90;;;;;;799934;178;26489;-78
2024/03/15 01:33:58;;;;;;;10.30;7.60;;;12.10;99.90;;;;;;801157;178;26454;-78
2024/03/15 01:36:25;;;;;;;8.77;7.63;;;12.10;99.90;;;;;;799706;178;26516;-78
2024/03/15 01:38:51;;;;;;;11.33;7.53;;;12.00;99.90;;;;;;798537;178;26483;-79
2024/03/15 01:41:18;;;;;;;10.73;7.33;;;12.10;99.90;;;;;;797735;178;26470;-78
2024/03/15 01:43:48;;;;;;;11.70;7.40;;;12.00;99.90;;;;;;799528;178;26434;-80
2024/03/15 01:46:14;;;;;;;11.73;7.67;;;12.00;99.90;;;;;;803116;178;26484;-79
2024/03/15 01:48:42;;;;;;;10.87;7.37;;;12.00;99.90;;;;;;800556;178;26454;-79
2024/03/15 01:51:08;;;;;;;11.07;7.13;;;11.90;99.90;;;;;;803560;178;26458;-81
2024/03/15 01:53:35;;;;;;;9.87;7.10;;;11.90;99.90;;;;;;801732;178;26446;-80
2024/03/15 01:56:02;;;;;;;8.73;7.10;;;12.00;99.90;;;;;;799949;177;26437;-79
2024/03/15 01:58:27;;;;;;;10.13;7.53;;;11.90;99.90;;;;;;800417;178;26406;-80
2024/03/15 02:00:56;;;;;;;11.70;7.10;;;11.90;99.90;;;;;;802231;178;26430;-80
2024/03/15 02:03:20;;;;;;;10.20;7.30;;;11.90;99.90;;;;;;800401;178;26450;-81
2024/03/15 02:05:47;;;;;;;11.40;7.10;;;11.90;99.90;;;;;;803660;178;26997;-79
2024/03/15 02:08:19;;;;;;;8.17;6.80;;;11.80;99.90;;;;;;800835;177;26977;-78
2024/03/15 02:10:46;;;;;;;14.70;7.90;;;11.80;99.90;;;;;;799056;178;26434;-80
2024/03/15 02:13:15;;;;;;;11.20;8.13;;;11.80;99.90;;;;;;801592;178;26435;-79
2024/03/15 02:15:38;;;;;;;10.40;8.10;;;11.80;99.90;;;;;;799325;178;26479;-78
2024/03/15 02:18:05;;;;;;;13.47;7.90;;;11.70;99.90;;;;;;802960;178;26993;-81
2024/03/15 02:20:32;;;;;;;11.50;8.20;;;11.70;99.90;;;;;;801218;178;26449;-82
2024/03/15 02:22:58;;;;;;;10.37;7.17;;;11.70;99.90;;;;;;800039;178;26621;-78
2024/03/15 02:25:25;;;;;;;10.57;7.00;;;11.70;99.90;;;;;;803080;177;26458;-78
2024/03/15 02:27:52;;;;;;;10.40;8.10;;;11.70;99.90;;;;;;800511;179;26470;-79
2024/03/15 02:30:20;;;;;;;12.17;6.97;;;11.80;99.90;;;;;;801491;177;26455;-80
2024/03/15 02:32:45;;;;;;;10.23;7.67;;;11.80;99.90;;;;;;800263;178;26466;-79
2024/03/15 02:35:12;;;;;;;12.17;8.07;;;11.80;99.90;;;;;;800707;178;26453;-79
2024/03/15 02:37:38;;;;;;;12.83;7.30;;;11.80;99.90;;;;;;800689;178;26438;-78
2024/03/15 02:40:09;;;;;;;9.10;6.83;;;11.70;99.90;;;;;;800322;178;26738;-79
2024/03/15 02:42:32;;;;;;;11.80;7.63;;;11.70;99.90;;;;;;799075;178;26458;-78
2024/03/15 02:44:58;;;;;;;13.80;7.00;;;11.70;99.90;;;;;;801936;178;26459;-77
2024/03/15 02:47:25;;;;;;;12.53;8.23;;;11.80;99.90;;;;;;800917;178;26443;-79
2024/03/15 02:49:52;;;;;;;14.97;7.73;;;11.80;99.90;;;;;;801036;177;26484;-78
2024/03/15 02:52:18;;;;;;;9.17;7.17;;;11.90;99.90;;;;;;800581;178;26475;-78
2024/03/15 02:54:45;;;;;;;9.73;7.30;;;11.90;99.90;;;;;;800149;177;26474;-78
2024/03/15 02:57:11;;;;;;;13.20;6.80;;;11.90;99.90;;;;;;801772;178;26416;-79
2024/03/15 02:59:38;;;;;;;10.87;6.60;;;11.90;99.90;;;;;;801087;178;26444;-79
2024/03/15 03:02:08;;;;;;;15.33;7.70;;;12.00;99.90;;;;;;797981;177;26493;-77
2024/03/15 03:04:31;;;;;;;9.47;7.10;;;12.00;99.90;;;;;;799774;178;27014;-78
2024/03/15 03:06:58;;;;;;;10.60;8.00;;;12.00;99.90;;;;;;799619;178;26949;-78
2024/03/15 03:09:25;;;;;;;9.87;7.60;;;12.00;99.90;;;;;;800650;177;27039;-77
2024/03/15 03:11:51;;;;;;;11.33;7.60;;;12.00;99.90;;;;;;798927;179;26479;-79
2024/03/15 03:14:23;;;;;;;12.03;6.83;;;12.00;99.90;;;;;;802410;177;28051;-78
2024/03/15 03:16:50;;;;;;;12.73;6.73;;;12.00;99.90;;;;;;798845;178;26526;-79
2024/03/15 03:19:17;;;;;;;11.67;7.20;;;11.90;99.90;;;;;;801216;178;26439;-77
2024/03/15 03:21:45;;;;;;;11.60;7.03;;;11.90;99.90;;;;;;800771;178;26503;-80
2024/03/15 03:24:10;;;;;;;9.43;6.83;;;11.90;99.90;;;;;;799174;178;26438;-78
2024/03/15 03:26:36;;;;;;;11.63;6.67;;;11.90;99.90;;;;;;799467;179;26451;-81
2024/03/15 03:29:03;;;;;;;11.97;7.27;;;11.90;99.90;;;;;;800457;178;26434;-78
2024/03/15 03:31:29;;;;;;;8.93;6.20;;;11.90;99.90;;;;;;801981;178;27013;-78
2024/03/15 03:33:56;;;;;;;9.83;6.47;;;12.00;99.90;;;;;;798705;178;26459;-79
2024/03/15 03:36:22;;;;;;;9.33;5.60;;;12.20;99.90;;;;;;804179;176;27009;-80
2024/03/15 03:38:49;;;;;;;11.87;6.47;;;12.30;99.90;;;;;;803001;178;26434;-79
2024/03/15 03:41:16;;;;;;;7.23;6.00;;;12.30;99.90;;;;;;801097;178;27017;-78
2024/03/15 03:43:43;;;;;;;8.60;5.93;;;12.40;99.90;;;;;;802371;178;26458;-80
2024/03/15 03:46:09;;;;;;;10.27;5.93;;;12.40;99.90;;;;;;803058;176;26451;-80
2024/03/15 03:48:35;;;;;;;11.50;6.43;;;12.30;99.90;;;;;;802249;177;26446;-80
2024/03/15 03:51:02;;;;;;;10.60;6.30;;;12.30;99.90;;;;;;801588;178;26449;-80
2024/03/15 03:53:30;;;;;;;14.33;6.67;;;12.20;99.90;;;;;;803116;176;26455;-81
2024/03/15 03:55:56;;;;;;;12.77;6.83;;;12.20;99.90;;;;;;801839;178;26431;-80
2024/03/15 03:58:23;;;;;;;8.03;5.60;;;12.20;99.90;;;;;;803859;176;26450;-80
2024/03/15 04:00:49;;;;;;;8.63;6.23;;;12.10;99.90;;;;;;801948;178;26440;-81
2024/03/15 04:03:16;;;;;;;9.40;5.97;;;12.10;99.90;;;;;;800934;173;26435;-81
2024/03/15 04:05:43;;;;;;;7.77;5.90;;;12.10;99.90;;;;;;803144;178;26443;-81
2024/03/15 04:08:12;;;;;;;11.30;6.10;;;12.10;99.90;;;;;;803667;171;26477;-80
2024/03/15 04:10:37;;;;;;;8.67;6.23;;;12.10;99.90;;;;;;781245;181;26458;-77
2024/03/15 04:13:03;;;;;;;8.63;5.90;;;12.10;99.90;;;;;;783349;183;27040;-78
2024/03/15 04:15:30;;;;;;;10.77;6.10;;;12.30;99.90;;;;;;767551;186;26488;-80
2024/03/15 04:17:57;;;;;;;9.73;5.50;;;12.40;99.90;;;;;;788687;180;26463;-78
2024/03/15 04:20:23;;;;;;;9.57;5.90;;;12.40;99.90;;;;;;786656;181;26442;-79
2024/03/15 04:22:50;;;;;;;9.30;5.80;;;12.40;99.90;;;;;;786933;181;27109;-79
2024/03/15 04:25:16;;;;;;;8.40;5.33;;;12.40;99.90;;;;;;790625;181;26619;-79
2024/03/15 04:27:44;;;;;;;8.90;5.00;;;12.40;99.90;;;;;;787780;181;27055;-79
2024/03/15 04:30:15;;;;;;;10.27;5.43;;;12.40;99.90;;;;;;770888;184;27028;-78
2024/03/15 04:32:41;;;;;;;8.23;5.57;;;12.40;99.90;;;;;;770744;185;26519;-79
2024/03/15 04:35:07;;;;;;;8.13;5.57;;;12.40;99.90;;;;;;772139;184;26472;-78
2024/03/15 04:37:35;;;;;;;8.20;5.47;;;12.30;99.90;;;;;;785998;181;27051;-79
2024/03/15 04:40:06;;;;;;;9.03;5.30;;;12.40;99.90;;;;;;768544;185;26551;-77
2024/03/15 04:42:32;;;;;;;8.50;5.00;;;12.50;99.90;;;;;;776900;183;27086;-80
2024/03/15 04:44:55;;;;;;;7.87;4.70;;;12.60;99.90;;;;;;770838;184;26475;-79
2024/03/15 04:47:21;;;;;;;7.70;4.97;;;12.70;99.90;;;;;;775518;183;26518;-80
2024/03/15 04:49:48;;;;;;;8.27;5.10;;;12.80;99.90;;;;;;792450;180;26470;-81
2024/03/15 04:52:14;;;;;;;5.57;4.40;;;12.80;99.90;;;;;;777337;183;27080;-78
2024/03/15 04:54:41;;;;;;;9.23;4.73;;;12.80;99.90;;;;;;782884;182;26471;-78
2024/03/15 04:57:08;;;;;;;6.80;4.27;;;12.90;99.90;;;;;;784049;182;28873;-79
2024/03/15 04:59:35;;;;;;;5.33;4.50;;;12.90;99.90;;;;;;786471;182;26494;-78
2024/03/15 05:02:01;;;;;;;7.07;4.30;;;13.00;99.90;;;;;;784249;180;27091;-79
2024/03/15 05:04:27;;;;;;;10.20;4.80;;;12.90;99.90;;;;;;784183;182;26527;-79
2024/03/15 05:06:54;;;;;;;6.70;4.50;;;12.90;99.90;;;;;;781871;180;26493;-79
2024/03/15 05:09:22;;;;;;;7.00;4.27;;;13.00;99.90;;;;;;782903;182;26549;-79
2024/03/15 05:11:47;;;;;;;9.33;4.93;;;12.90;99.90;;;;;;784812;182;26543;-79
2024/03/15 05:14:14;;;;;;;7.03;4.47;;;13.00;99.90;;;;;;784896;182;27019;-78
2024/03/15 05:16:40;;;;;;;6.40;4.70;;;13.00;99.90;;;;;;784378;182;26564;-79
2024/03/15 05:19:07;;;;;;;8.90;4.93;;;13.10;99.90;;;;;;785868;182;26627;-80
2024/03/15 05:21:34;;;;;;;8.43;5.60;;;13.00;99.90;;;;;;786494;182;26527;-79
2024/03/15 05:24:01;;;;;;;7.83;4.77;;;13.10;99.90;;;;;;785591;182;26655;-79
2024/03/15 05:26:31;;;;;;;9.27;4.77;;;13.10;99.90;;;;;;773423;184;26513;-80
2024/03/15 05:28:54;;;;;;;8.73;4.80;;;13.10;99.90;;;;;;783963;181;26439;-77
2024/03/15 05:31:23;;;;;;;9.47;5.00;;;13.10;99.90;;;;;;764093;185;26526;-76
2024/03/15 05:33:50;;;;;;;7.37;4.40;;;13.10;99.90;;;;;;776861;183;27062;-77
2024/03/15 05:36:16;;;;;;;6.67;4.50;;;13.10;99.90;;;;;;776225;184;26693;-76
2024/03/15 05:38:42;;;;;;;8.10;4.63;;;13.20;99.90;;;;;;771713;185;27058;-77
2024/03/15 05:41:09;;;;;;;6.17;4.47;;;13.20;99.90;;;;;;781939;183;26508;-76
2024/03/15 05:43:36;;;;;;;9.03;4.43;;;13.20;99.90;;;;;;784365;183;27024;-77
2024/03/15 05:46:03;;;;;;;8.43;4.67;;;13.20;99.90;;;;;;765796;186;26488;-79
2024/03/15 05:48:29;;;;;;;7.60;4.80;;;13.30;99.90;;;;;;784748;183;26474;-79
2024/03/15 05:50:55;;;;;;;7.30;4.67;;;13.20;99.90;;;;;;766817;186;26480;-78
2024/03/15 05:53:24;;;;;;;10.43;5.33;;;13.20;99.90;;;;;;789354;180;27097;-78
2024/03/15 05:55:49;;;;;;;7.67;4.47;;;13.20;99.90;;;;;;782560;182;26529;-78
2024/03/15 05:58:15;;;;;;;10.40;5.10;;;13.20;99.90;;;;;;785483;180;27022;-77
2024/03/15 06:00:42;;;;;;;9.17;4.90;;;13.20;99.90;;;;;;785770;179;26466;-77
2024/03/15 06:03:09;;;;;;;8.90;4.33;;;13.10;99.90;;;;;;786227;182;26479;-78
2024/03/15 06:05:35;;;;;;;7.97;4.97;;;13.20;99.90;;;;;;786026;181;26491;-77
2024/03/15 06:08:02;;;;;;;10.80;5.30;;;13.20;99.90;;;;;;785737;182;26515;-80
2024/03/15 06:10:29;;;;;;;10.07;5.10;;;13.20;99.90;;;;;;784953;180;26464;-79
2024/03/15 06:12:55;;;;;;;7.53;5.07;;;13.20;99.90;;;;;;786019;182;26495;-79
2024/03/15 06:15:21;;;;;;;8.97;4.93;;;13.30;99.90;;;;;;773730;184;26475;-78
2024/03/15 06:17:48;;;;;;;9.10;4.97;;;13.30;99.90;;;;;;776363;183;26513;-79
2024/03/15 06:20:15;;;;;;;9.33;6.80;;;13.30;99.90;;;;;;778155;183;26622;-77
2024/03/15 06:22:44;;;;;;;7.77;5.37;;;13.40;99.90;;;;;;771444;183;26511;-78
2024/03/15 06:25:09;;;;;;;7.00;4.67;;;13.40;99.90;;;;;;783963;181;26535;-79
2024/03/15 06:27:35;;;;;;;7.47;5.10;;;13.40;99.90;;;;;;768490;183;26553;-78
2024/03/15 06:30:03;;;;;;;5.80;4.30;;;13.40;99.90;;;;;;786042;180;26945;-80
2024/03/15 06:32:35;;;;;;;10.00;4.53;;;13.40;99.90;;;;;;770525;181;26528;-79
2024/03/15 06:34:57;;;;;;;10.30;5.00;;;13.40;99.90;;;;;;782138;182;26501;-81
2024/03/15 06:37:23;;;;;;;9.33;5.00;;;13.40;99.90;;;;;;782752;183;27032;-80
2024/03/15 06:40:06;;;;;;;7.37;4.10;;;13.40;99.90;;;;;;788440;181;26484;-79
2024/03/15 06:42:37;;;;;;;8.13;4.07;;;13.40;99.90;;;;;;785064;182;26503;-81
2024/03/15 06:45:03;;;;;;;12.53;5.07;;;13.50;99.90;;;;;;785082;182;26738;-82
2024/03/15 06:47:30;;;;;;;8.87;6.43;;;13.50;99.90;;;;;;784865;180;26484;-81
2024/03/15 06:50:06;;;;;;;7.53;4.83;;;13.60;99.90;;;;;;785045;182;26475;-82
2024/03/15 06:54:55;;;;;;;7.33;4.70;;;13.70;99.90;;;;;;781769;183;26542;-80
2024/03/15 06:57:20;;;;;;;9.53;4.90;;;13.90;99.90;;;;;;782703;182;27075;-81
2024/03/15 06:59:48;;;;;;;10.53;5.03;;;13.80;99.90;;;;;;786235;181;26467;-80
2024/03/15 07:02:14;;;;;;;10.63;5.30;;;13.90;99.90;;;;;;784061;179;26507;-82
2024/03/15 07:04:40;;;;;;;10.00;5.30;;;13.90;99.90;;;;;;771142;181;26497;-82
2024/03/15 07:07:07;;;;;;;11.77;5.33;;;14.00;99.90;;;;;;778487;183;26928;-82
2024/03/15 07:09:33;;;;;;;11.87;5.50;;;14.00;99.90;;;;;;790181;179;26873;-81
2024/03/15 07:14:52;;;;;;;15.83;5.93;;;14.00;99.90;;;;;;699568;179;26785;-78
2024/03/15 07:17:25;;;;;;;21.33;5.87;;;14.00;99.90;;;;;;737989;194;26611;-79
2024/03/15 07:20:12;;;;;;;17.70;6.00;;;14.10;99.90;;;;;;736215;192;26568;-79
2024/03/15 07:22:43;;;;;;;12.43;5.33;;;14.10;99.90;;;;;;750265;188;26641;-78
2024/03/15 07:25:20;;;;;;;9.63;5.13;;;14.20;99.90;;;;;;752070;189;26567;-79
2024/03/15 07:28:02;;;;;;;10.97;5.87;;;14.20;99.90;;;;;;752789;190;26565;-80
2024/03/15 07:30:39;;;;;;;11.80;5.17;;;14.30;99.90;;;;;;752819;190;26550;-80
2024/03/15 07:33:25;;;;;;;11.43;6.43;;;14.30;99.90;;;;;;752583;189;26567;-79
2024/03/15 07:36:13;;;;;;;11.43;5.43;;;14.40;99.90;;;;;;753155;190;26667;-80
2024/03/15 07:38:37;;;;;;;8.37;5.23;;;14.60;99.90;;;;;;754161;190;26667;-81
2024/03/15 07:41:13;;;;;;;7.93;4.70;;;14.60;99.90;;;;;;755018;186;26574;-80
2024/03/15 07:43:47;;;;;;;7.80;4.93;;;14.40;99.90;;;;;;756156;190;26570;-81
2024/03/15 07:46:18;;;;;;;8.63;4.93;;;14.50;99.90;;;;;;755707;190;26524;-82
2024/03/15 07:51:31;;;;;;;8.73;4.60;;;14.50;99.90;;;;;;753401;190;26644;-81
2024/03/15 07:54:03;;;;;;;9.33;4.73;;;14.40;99.90;;;;;;754096;190;26566;-81
2024/03/15 07:56:47;;;;;;;10.27;5.17;;;14.20;99.90;;;;;;753631;188;26530;-82
2024/03/15 07:59:14;;;;;;;8.57;4.80;;;14.00;99.90;;;;;;754996;188;26542;-81
2024/03/15 08:01:55;;;;;;;12.03;5.03;;;14.00;99.90;;;;;;756208;188;26525;-80
2024/03/15 08:04:34;;;;;;;7.87;5.10;;;14.10;99.90;;;;;;754095;190;26706;-82
2024/03/15 08:07:05;;;;;;;8.43;4.67;;;14.20;99.90;;;;;;751658;190;26526;-81
2024/03/15 08:09:38;;;;;;;7.73;4.60;;;14.30;99.90;;;;;;754594;190;28126;-81
2024/03/15 08:12:26;;;;;;;10.67;4.80;;;14.30;99.90;;;;;;754903;187;26592;-82
2024/03/15 08:15:00;;;;;;;9.43;4.97;;;14.40;99.90;;;;;;752474;187;26567;-80
2024/03/15 08:17:38;;;;;;;7.40;4.50;;;14.40;99.90;;;;;;754733;190;26518;-79
2024/03/15 08:20:21;;;;;;;11.67;5.47;;;14.50;99.90;;;;;;755672;190;26512;-79
2024/03/15 08:23:00;;;;;;;7.87;5.00;;;14.50;99.90;;;;;;757116;188;26525;-80
2024/03/15 08:25:38;;;;;;;12.60;5.60;;;14.70;99.90;;;;;;756946;187;26508;-80
2024/03/15 08:33:59;;;;;;;8.13;4.63;;;14.70;99.90;;;;;;740001;191;26542;-81
2024/03/15 08:36:53;;;;;;;8.77;4.57;;;14.70;99.90;;;;;;752381;187;26559;-80
2024/03/15 08:39:29;;;;;;;7.63;4.70;;;14.60;99.90;;;;;;730353;193;26715;-79
2024/03/15 08:42:05;;;;;;;9.73;4.80;;;14.50;99.90;;;;;;754668;188;27065;-80
2024/03/15 08:44:36;;;;;;;10.87;5.77;;;14.30;99.90;;;;;;754369;188;27099;-80
2024/03/15 08:47:12;;;;;;;11.20;6.00;;;14.10;99.90;;;;;;753680;190;26595;-80
2024/03/15 08:49:40;;;;;;;12.23;6.97;;;14.20;99.90;;;;;;753463;187;26524;-80
2024/03/15 08:52:15;;;;;;;11.57;7.03;;;14.30;99.90;;;;;;752856;189;26534;-80
2024/03/15 08:55:02;;;;;;;9.97;6.20;;;14.50;99.90;;;;;;752205;190;26554;-79
2024/03/15 08:57:38;;;;;;;9.70;4.63;;;14.80;99.90;;;;;;752960;188;27146;-81
2024/03/15 09:02:55;;;;;;;6.17;4.07;;;15.10;99.90;;;;;;752296;188;26552;-79
2024/03/15 09:05:25;;;;;;;8.90;5.10;;;15.10;99.90;;;;;;753185;190;26546;-82
2024/03/15 09:07:59;;;;;;;8.03;4.67;;;15.40;99.90;;;;;;752158;190;26510;-79
2024/03/15 09:10:45;;;;;;;8.50;4.70;;;15.50;99.90;;;;;;753839;190;26516;-81
2024/03/15 09:13:32;;;;;;;8.83;4.50;;;15.60;99.90;;;;;;750814;189;26635;-81
2024/03/15 09:16:11;;;;;;;9.77;5.20;;;15.50;99.90;;;;;;741930;188;26672;-80
2024/03/15 09:18:59;;;;;;;12.00;6.90;;;15.50;99.90;;;;;;752220;190;28107;-80
2024/03/15 09:21:46;;;;;;;14.77;8.73;;;15.40;99.90;;;;;;753583;188;26513;-80
2024/03/15 09:24:23;;;;;;;13.93;6.57;;;15.60;99.90;;;;;;743229;190;26529;-80
2024/03/15 09:29:32;;;;;;;9.47;5.10;;;15.70;99.90;;;;;;752826;190;26510;-80
2024/03/15 09:32:06;;;;;;;9.80;5.37;;;15.70;99.90;;;;;;754199;188;27091;-79
2024/03/15 09:34:54;;;;;;;8.13;3.97;;;15.80;99.90;;;;;;757912;188;26578;-80
2024/03/15 09:37:46;;;;;;;9.07;4.43;;;15.70;99.90;;;;;;756832;188;26664;-80
2024/03/15 09:40:11;;;;;;;8.90;5.47;;;15.90;99.90;;;;;;753677;190;26722;-80
2024/03/15 09:42:48;;;;;;;15.37;9.83;;;16.00;99.90;;;;;;754456;190;27080;-80
2024/03/15 09:45:28;;;;;;;15.80;6.87;;;16.00;99.90;;;;;;753660;190;26546;-80
2024/03/15 09:48:08;;;;;;;;;;;;;;;;;;;;;
2024/03/15 09:53:31;;;;;;;9.00;5.47;;;16.10;99.90;;;;;;756232;190;26587;-82
2024/03/15 09:56:14;;;;;;;8.47;5.27;;;16.00;99.90;;;;;;754911;186;26528;-80
2024/03/15 09:59:15;;;;;;;5.70;2.90;;;16.20;99.90;;;;;;755986;187;26519;-80
2024/03/15 10:01:50;;;;;;;8.37;3.90;;;16.00;99.90;;;;;;757250;187;26543;-80
2024/03/15 10:10:14;;;;;;;4.83;3.17;;;16.10;99.90;;;;;;699496;203;26712;-81
2024/03/15 10:13:00;;;;;;;64.00;34.63;;;16.10;99.90;;;;;;718741;190;27189;-79
2024/03/15 10:15:39;;;;;;;66.40;32.47;;;16.20;99.90;;;;;;743371;190;26542;-79
2024/03/15 10:18:14;;;;;;;49.87;26.10;;;16.30;99.90;;;;;;751740;190;27096;-79
2024/03/15 10:21:00;;;;;;;8.77;4.53;;;16.40;99.90;;;;;;752639;190;26512;-79
2024/03/15 10:32:48;;;;;;;4.53;2.70;;;16.70;99.90;;;;;;724979;194;26600;-79
2024/03/15 10:35:24;;;;;;;3.30;3.00;;;17.10;99.90;;;;;;738276;190;26532;-80
2024/03/15 10:37:57;;;;;;;2.40;2.20;;;17.10;99.90;;;;;;752026;190;26502;-78
2024/03/15 10:43:16;;;;;;;4.33;2.50;;;17.10;99.90;;;;;;741863;190;26523;-80
2024/03/15 10:45:55;;;;;;;2.83;2.23;;;17.20;99.90;;;;;;758989;186;26520;-79
2024/03/15 10:48:39;;;;;;;3.40;2.07;;;17.30;99.90;;;;;;756126;187;26556;-79
2024/03/15 10:51:27;;;;;;;3.83;2.30;;;17.20;99.90;;;;;;753525;187;27082;-79
2024/03/15 10:54:21;;;;;;;3.70;2.47;;;17.30;99.90;;;;;;757296;188;26546;-81
2024/03/15 10:56:59;;;;;;;5.73;2.50;;;17.50;99.90;;;;;;754779;188;26560;-81
2024/03/15 10:59:52;;;;;;;4.63;3.20;;;17.70;99.90;;;;;;756100;187;26548;-80
2024/03/15 11:02:33;;;;;;;3.00;2.50;;;18.30;99.90;;;;;;758926;190;26548;-80
2024/03/15 11:05:18;;;;;;;6.17;3.73;;;18.50;99.90;;;;;;758420;190;26707;-79
2024/03/15 11:07:48;;;;;;;3.87;2.37;;;19.50;98.40;;;;;;757872;187;26515;-80
2024/03/15 11:10:26;;;;;;;3.83;2.10;;;19.70;95.70;;;;;;754723;186;27147;-81
2024/03/15 11:13:01;;;;;;;15.83;9.20;;;20.30;94.30;;;;;;754286;188;26530;-80
2024/03/15 11:15:36;;;;;;;85.77;44.03;;;19.70;94.50;;;;;;757547;188;26728;-79
2024/03/15 11:18:24;;;;;;;7.57;4.53;;;18.70;96.90;;;;;;754501;190;26532;-79
2024/03/15 11:23:42;;;;;;;14.23;7.47;;;17.40;99.90;;;;;;752989;190;26529;-80
2024/03/15 11:26:50;;;;;;;18.20;10.70;;;17.20;99.90;;;;;;753190;190;26529;-82
2024/03/15 11:29:37;;;;;;;16.10;7.73;;;16.70;99.90;;;;;;741557;187;26541;-81
2024/03/15 11:32:35;;;;;;;32.63;17.67;;;16.40;99.90;;;;;;753806;188;26526;-79
2024/03/15 11:35:07;;;;;;;6.53;3.50;;;16.10;99.90;;;;;;755811;187;26527;-77
2024/03/15 11:37:46;;;;;;;9.57;6.07;;;15.80;99.90;;;;;;754625;189;26522;-79
2024/03/15 11:40:43;;;;;;;11.80;7.37;;;15.30;99.90;;;;;;757054;186;26621;-79
2024/03/15 11:43:21;;;;;;;21.97;11.43;;;15.10;99.90;;;;;;741210;190;27389;-80
2024/03/15 11:48:46;;;;;;;84.13;42.90;;;15.30;99.90;;;;;;731541;191;26526;-79
2024/03/15 11:51:35;;;;;;;47.83;28.77;;;16.00;99.90;;;;;;755720;188;26517;-80
2024/03/15 11:54:33;;;;;;;113.73;55.00;;;17.30;99.90;;;;;;753568;188;26689;-79
2024/03/15 11:57:26;;;;;;;49.00;29.57;;;18.10;99.90;;;;;;759072;188;26508;-82
2024/03/15 12:00:04;;;;;;;73.40;38.87;;;18.30;99.90;;;;;;758136;187;26556;-80
2024/03/15 12:02:43;;;;;;;51.60;31.63;;;19.30;99.90;;;;;;757111;190;26538;-81
2024/03/15 12:05:18;;;;;;;12.37;8.30;;;19.60;99.90;;;;;;755563;190;26671;-81
2024/03/15 12:07:58;;;;;;;30.97;18.37;;;19.70;99.90;;;;;;757317;190;26682;-79
2024/03/15 12:13:18;;;;;;;9.63;6.13;;;18.60;99.80;;;;;;792123;169;26521;-82
2024/03/15 12:15:45;;;;;;;8.07;5.77;;;17.90;99.90;;;;;;799165;179;26445;-82
2024/03/15 12:18:16;;;;;;;6.43;4.80;;;17.40;99.90;;;;;;798922;178;26509;-81
2024/03/15 12:20:43;;;;;;;47.67;23.53;;;17.10;99.90;;;;;;798739;176;26433;-82
2024/03/15 12:23:12;;;;;;;23.67;13.80;;;17.00;99.90;;;;;;807197;176;26439;-81
2024/03/15 12:25:38;;;;;;;8.40;4.47;;;17.00;99.90;;;;;;803010;177;26428;-81
2024/03/15 12:28:06;;;;;;;7.07;4.27;;;17.80;99.90;;;;;;807794;176;26553;-80
2024/03/15 12:30:33;;;;;;;7.73;2.83;;;19.20;99.90;;;;;;799535;178;26611;-81
2024/03/15 12:32:59;;;;;;;17.17;9.53;;;20.20;96.30;;;;;;799264;176;26486;-81
2024/03/15 12:35:26;;;;;;;23.73;13.77;;;19.20;96.00;;;;;;808575;173;26477;-81
2024/03/15 12:37:53;;;;;;;16.17;11.07;;;18.70;98.10;;;;;;802757;176;26437;-81
2024/03/15 12:40:20;;;;;;;9.40;6.37;;;18.40;98.60;;;;;;805595;177;27016;-81
2024/03/15 12:42:46;;;;;;;6.33;2.47;;;18.60;98.70;;;;;;813089;177;26445;-82
2024/03/15 12:45:15;;;;;;;5.13;2.53;;;18.50;97.70;;;;;;801343;176;26442;-81
2024/03/15 12:47:41;;;;;;;10.43;5.87;;;18.30;97.90;;;;;;806143;176;26643;-81
2024/03/15 12:50:09;;;;;;;18.07;9.73;;;18.00;97.90;;;;;;809233;177;26451;-81
2024/03/15 12:52:36;;;;;;;27.60;16.03;;;17.60;98.00;;;;;;804348;176;26434;-81
2024/03/15 12:55:04;;;;;;;34.13;19.20;;;17.60;98.10;;;;;;804490;177;26440;-79
2024/03/15 12:57:29;;;;;;;26.97;16.30;;;17.60;98.50;;;;;;804131;176;26580;-81
2024/03/15 12:59:56;;;;;;;6.80;4.50;;;17.60;98.20;;;;;;804598;176;26438;-82
2024/03/15 13:02:22;;;;;;;4.03;2.33;;;17.60;98.50;;;;;;798456;176;26418;-81
2024/03/15 13:04:50;;;;;;;7.23;2.97;;;17.70;98.30;;;;;;805901;176;26430;-81
2024/03/15 13:07:16;;;;;;;6.73;2.43;;;17.60;98.10;;;;;;798335;178;26444;-81
2024/03/15 13:09:42;;;;;;;19.23;9.83;;;17.50;97.80;;;;;;800616;177;27007;-82
2024/03/15 13:12:09;;;;;;;5.90;2.97;;;17.60;99.80;;;;;;801371;175;26734;-82
2024/03/15 13:14:36;;;;;;;13.57;7.07;;;18.00;97.40;;;;;;802823;169;26521;-79
2024/03/15 13:17:03;;;;;;;24.07;13.70;;;18.00;95.80;;;;;;796765;177;26639;-82
2024/03/15 13:19:29;;;;;;;13.43;7.83;;;18.40;96.70;;;;;;793501;178;26469;-78
2024/03/15 13:21:56;;;;;;;9.50;5.30;;;18.90;93.10;;;;;;798198;179;26452;-80
2024/03/15 13:24:23;;;;;;;19.47;9.90;;;19.30;91.40;;;;;;792091;178;26466;-79
2024/03/15 13:26:49;;;;;;;12.83;6.23;;;18.90;92.40;;;;;;790452;180;26462;-79
2024/03/15 13:29:15;;;;;;;19.17;11.60;;;18.90;91.30;;;;;;793159;179;26540;-81
2024/03/15 13:31:42;;;;;;;13.87;7.97;;;19.10;89.10;;;;;;787850;179;26452;-81
2024/03/15 13:34:09;;;;;;;4.10;2.37;;;19.10;89.00;;;;;;793100;179;27098;-79
2024/03/15 13:36:35;;;;;;;4.83;2.10;;;19.20;88.20;;;;;;794159;180;26469;-80
2024/03/15 13:39:04;;;;;;;4.03;2.43;;;19.70;84.00;;;;;;795248;180;26469;-80
2024/03/15 13:41:28;;;;;;;5.80;2.63;;;19.80;88.20;;;;;;789543;180;26436;-78
2024/03/15 13:43:56;;;;;;;6.03;3.30;;;20.10;89.00;;;;;;789316;180;26470;-82
2024/03/15 13:46:22;;;;;;;51.20;25.93;;;19.60;84.60;;;;;;794262;180;26446;-80
2024/03/15 13:48:48;;;;;;;76.57;43.50;;;19.00;85.80;;;;;;787744;179;26470;-80